Terminal Aerodrome Forecast
Issued by NWS

Home | Current Version | Previous Version | Text Only | Print | Product List | Glossary On
Versions: 1 2 3 4 5 6 7 8 9 10 11 12 13 14 15 16 17 18
000
FTAK31 PAJN 201700 AAA
TAFAYA
TAF AMD
PAYA 201739Z 2018/2118 00000KT 3SM BCFG OVC002
     FM201900 VRB03KT P6SM SCT002 SCT050
     FM202100 27005KT P6SM SKC
     FM210300 VRB03KT P6SM SKC
     FM210900 00000KT P6SM VCFG SKC
     FM211100 00000KT 1SM BR BKN001
     FM211700 00000KT 6SM BCFG FEW001 SCT050
      AMD LTD TO CLD VIS AND WIND 2101/2110=

USA.gov is the U.S. government's official web portal to all federal, state and local government web resources and services.